sensor_id;sensor_type;location;lat;lon;timestamp;temperature;humidity
8231;DHT22;4156;50.908;6.974;2023-07-30T00:01:54;19.90;99.90
8231;DHT22;4156;50.908;6.974;2023-07-30T00:04:20;19.90;99.90
8231;DHT22;4156;50.908;6.974;2023-07-30T00:06:46;19.90;99.90
8231;DHT22;4156;50.908;6.974;2023-07-30T00:09:12;19.80;99.90
8231;DHT22;4156;50.908;6.974;2023-07-30T00:11:37;19.90;99.90
8231;DHT22;4156;50.908;6.974;2023-07-30T00:14:03;19.80;99.90
8231;DHT22;4156;50.908;6.974;2023-07-30T00:16:28;19.90;99.90
8231;DHT22;4156;50.908;6.974;2023-07-30T00:18:54;19.90;99.90
8231;DHT22;4156;50.908;6.974;2023-07-30T00:21:19;19.90;99.90
8231;DHT22;4156;50.908;6.974;2023-07-30T00:23:45;19.80;99.90
8231;DHT22;4156;50.908;6.974;2023-07-30T00:26:10;19.70;99.90
8231;DHT22;4156;50.908;6.974;2023-07-30T00:28:36;19.70;99.90
8231;DHT22;4156;50.908;6.974;2023-07-30T00:31:01;19.60;99.90
8231;DHT22;4156;50.908;6.974;2023-07-30T00:33:27;19.60;99.90
8231;DHT22;4156;50.908;6.974;2023-07-30T00:35:52;19.90;99.90
8231;DHT22;4156;50.908;6.974;2023-07-30T00:38:19;19.60;99.90
8231;DHT22;4156;50.908;6.974;2023-07-30T00:40:44;19.60;99.90
8231;DHT22;4156;50.908;6.974;2023-07-30T00:43:10;19.60;99.90
8231;DHT22;4156;50.908;6.974;2023-07-30T00:45:36;19.60;99.90
8231;DHT22;4156;50.908;6.974;2023-07-30T00:48:04;19.50;99.90
8231;DHT22;4156;50.908;6.974;2023-07-30T00:50:30;19.50;99.90
8231;DHT22;4156;50.908;6.974;2023-07-30T00:52:56;19.60;99.90
8231;DHT22;4156;50.908;6.974;2023-07-30T00:55:22;19.60;99.90
8231;DHT22;4156;50.908;6.974;2023-07-30T00:57:48;19.60;99.90
8231;DHT22;4156;50.908;6.974;2023-07-30T01:00:13;19.50;99.90
8231;DHT22;4156;50.908;6.974;2023-07-30T01:02:39;19.40;99.90
8231;DHT22;4156;50.908;6.974;2023-07-30T01:05:05;19.40;99.90
8231;DHT22;4156;50.908;6.974;2023-07-30T01:07:31;19.40;99.90
8231;DHT22;4156;50.908;6.974;2023-07-30T01:09:57;19.40;99.90
8231;DHT22;4156;50.908;6.974;2023-07-30T01:12:23;19.40;99.90
8231;DHT22;4156;50.908;6.974;2023-07-30T01:14:50;19.50;99.90
8231;DHT22;4156;50.908;6.974;2023-07-30T01:17:16;19.50;99.90
8231;DHT22;4156;50.908;6.974;2023-07-30T01:19:41;19.40;99.90
8231;DHT22;4156;50.908;6.974;2023-07-30T01:22:07;19.40;99.90
8231;DHT22;4156;50.908;6.974;2023-07-30T01:24:33;19.30;99.90
8231;DHT22;4156;50.908;6.974;2023-07-30T01:27:05;19.30;99.90
8231;DHT22;4156;50.908;6.974;2023-07-30T01:29:38;19.40;99.90
8231;DHT22;4156;50.908;6.974;2023-07-30T01:32:08;19.40;99.90
8231;DHT22;4156;50.908;6.974;2023-07-30T01:34:37;19.40;99.90
8231;DHT22;4156;50.908;6.974;2023-07-30T01:37:05;19.30;99.90
8231;DHT22;4156;50.908;6.974;2023-07-30T01:39:31;19.30;99.90
8231;DHT22;4156;50.908;6.974;2023-07-30T01:41:57;19.30;99.90
8231;DHT22;4156;50.908;6.974;2023-07-30T01:44:23;19.20;99.90
8231;DHT22;4156;50.908;6.974;2023-07-30T01:46:48;19.30;99.90
8231;DHT22;4156;50.908;6.974;2023-07-30T01:49:14;19.40;99.90
8231;DHT22;4156;50.908;6.974;2023-07-30T01:51:39;19.30;99.90
8231;DHT22;4156;50.908;6.974;2023-07-30T01:54:05;19.30;99.90
8231;DHT22;4156;50.908;6.974;2023-07-30T01:56:30;19.30;99.90
8231;DHT22;4156;50.908;6.974;2023-07-30T01:58:56;19.30;99.90
8231;DHT22;4156;50.908;6.974;2023-07-30T02:01:22;19.20;99.90
8231;DHT22;4156;50.908;6.974;2023-07-30T02:03:48;19.20;99.90
8231;DHT22;4156;50.908;6.974;2023-07-30T02:06:13;19.20;99.90
8231;DHT22;4156;50.908;6.974;2023-07-30T02:08:39;19.30;99.90
8231;DHT22;4156;50.908;6.974;2023-07-30T02:11:04;19.30;99.90
8231;DHT22;4156;50.908;6.974;2023-07-30T02:13:30;19.40;99.90
8231;DHT22;4156;50.908;6.974;2023-07-30T02:15:55;19.40;99.90
8231;DHT22;4156;50.908;6.974;2023-07-30T02:18:21;19.40;99.90
8231;DHT22;4156;50.908;6.974;2023-07-30T02:20:46;19.50;99.90
8231;DHT22;4156;50.908;6.974;2023-07-30T02:23:14;19.40;99.90
8231;DHT22;4156;50.908;6.974;2023-07-30T02:25:41;19.40;99.90
8231;DHT22;4156;50.908;6.974;2023-07-30T02:28:06;19.40;99.90
8231;DHT22;4156;50.908;6.974;2023-07-30T02:30:33;19.40;99.90
8231;DHT22;4156;50.908;6.974;2023-07-30T02:32:59;19.40;99.90
8231;DHT22;4156;50.908;6.974;2023-07-30T02:35:24;19.40;99.90
8231;DHT22;4156;50.908;6.974;2023-07-30T02:37:50;19.50;99.90
8231;DHT22;4156;50.908;6.974;2023-07-30T02:40:16;19.40;99.90
8231;DHT22;4156;50.908;6.974;2023-07-30T02:42:41;19.40;99.90
8231;DHT22;4156;50.908;6.974;2023-07-30T02:45:07;19.40;99.90
8231;DHT22;4156;50.908;6.974;2023-07-30T02:47:33;19.40;99.90
8231;DHT22;4156;50.908;6.974;2023-07-30T02:49:58;19.40;99.90
8231;DHT22;4156;50.908;6.974;2023-07-30T02:52:24;19.40;99.90
8231;DHT22;4156;50.908;6.974;2023-07-30T02:54:49;19.40;99.90
8231;DHT22;4156;50.908;6.974;2023-07-30T02:57:15;19.40;99.90
8231;DHT22;4156;50.908;6.974;2023-07-30T02:59:40;19.40;99.90
8231;DHT22;4156;50.908;6.974;2023-07-30T03:02:06;19.40;99.90
8231;DHT22;4156;50.908;6.974;2023-07-30T03:04:32;19.50;99.90
8231;DHT22;4156;50.908;6.974;2023-07-30T03:06:57;19.30;99.90
8231;DHT22;4156;50.908;6.974;2023-07-30T03:09:23;19.30;99.90
8231;DHT22;4156;50.908;6.974;2023-07-30T03:11:52;19.30;99.90
8231;DHT22;4156;50.908;6.974;2023-07-30T03:14:17;19.30;99.90
8231;DHT22;4156;50.908;6.974;2023-07-30T03:16:47;19.30;99.90
8231;DHT22;4156;50.908;6.974;2023-07-30T03:19:13;19.40;99.90
8231;DHT22;4156;50.908;6.974;2023-07-30T03:21:38;19.30;99.90
8231;DHT22;4156;50.908;6.974;2023-07-30T03:24:04;19.60;99.90
8231;DHT22;4156;50.908;6.974;2023-07-30T03:26:29;19.30;99.90
8231;DHT22;4156;50.908;6.974;2023-07-30T03:28:55;19.30;99.90
8231;DHT22;4156;50.908;6.974;2023-07-30T03:31:20;19.40;99.90
8231;DHT22;4156;50.908;6.974;2023-07-30T03:33:46;19.30;99.90
8231;DHT22;4156;50.908;6.974;2023-07-30T03:36:12;19.40;99.90
8231;DHT22;4156;50.908;6.974;2023-07-30T03:38:42;19.40;99.90
8231;DHT22;4156;50.908;6.974;2023-07-30T03:41:08;19.40;99.90
8231;DHT22;4156;50.908;6.974;2023-07-30T03:43:34;19.40;99.90
8231;DHT22;4156;50.908;6.974;2023-07-30T03:46:00;19.80;99.90
8231;DHT22;4156;50.908;6.974;2023-07-30T03:48:25;19.40;99.90
8231;DHT22;4156;50.908;6.974;2023-07-30T03:50:55;19.40;99.90
8231;DHT22;4156;50.908;6.974;2023-07-30T03:53:21;19.30;99.90
8231;DHT22;4156;50.908;6.974;2023-07-30T03:55:46;19.30;99.90
8231;DHT22;4156;50.908;6.974;2023-07-30T03:58:12;19.20;99.90
8231;DHT22;4156;50.908;6.974;2023-07-30T04:00:38;19.10;99.90
8231;DHT22;4156;50.908;6.974;2023-07-30T04:03:03;19.10;99.90
8231;DHT22;4156;50.908;6.974;2023-07-30T04:05:30;19.20;99.90
8231;DHT22;4156;50.908;6.974;2023-07-30T04:07:55;19.20;99.90
8231;DHT22;4156;50.908;6.974;2023-07-30T04:10:21;19.10;99.90
8231;DHT22;4156;50.908;6.974;2023-07-30T04:12:46;19.10;99.90
8231;DHT22;4156;50.908;6.974;2023-07-30T04:15:12;19.10;99.90
8231;DHT22;4156;50.908;6.974;2023-07-30T04:17:38;19.10;99.90
8231;DHT22;4156;50.908;6.974;2023-07-30T04:20:04;19.10;99.90
8231;DHT22;4156;50.908;6.974;2023-07-30T04:22:30;19.10;99.90
8231;DHT22;4156;50.908;6.974;2023-07-30T04:24:56;19.10;99.90
8231;DHT22;4156;50.908;6.974;2023-07-30T04:27:22;19.00;99.90
8231;DHT22;4156;50.908;6.974;2023-07-30T04:29:47;19.00;99.90
8231;DHT22;4156;50.908;6.974;2023-07-30T04:32:13;19.00;99.90
8231;DHT22;4156;50.908;6.974;2023-07-30T04:34:39;19.10;99.90
8231;DHT22;4156;50.908;6.974;2023-07-30T04:37:05;19.10;99.90
8231;DHT22;4156;50.908;6.974;2023-07-30T04:39:32;19.10;99.90
8231;DHT22;4156;50.908;6.974;2023-07-30T04:41:58;19.10;99.90
8231;DHT22;4156;50.908;6.974;2023-07-30T04:44:23;19.10;99.90
8231;DHT22;4156;50.908;6.974;2023-07-30T04:46:49;19.10;99.90
8231;DHT22;4156;50.908;6.974;2023-07-30T04:49:15;19.10;99.90
8231;DHT22;4156;50.908;6.974;2023-07-30T04:51:40;19.20;99.90
8231;DHT22;4156;50.908;6.974;2023-07-30T04:54:06;19.20;99.90
8231;DHT22;4156;50.908;6.974;2023-07-30T04:56:31;19.10;99.90
8231;DHT22;4156;50.908;6.974;2023-07-30T04:58:57;19.10;99.90
8231;DHT22;4156;50.908;6.974;2023-07-30T05:01:24;19.10;99.90
8231;DHT22;4156;50.908;6.974;2023-07-30T05:03:50;19.10;99.90
8231;DHT22;4156;50.908;6.974;2023-07-30T05:06:15;19.10;99.90
8231;DHT22;4156;50.908;6.974;2023-07-30T05:08:41;19.10;99.90
8231;DHT22;4156;50.908;6.974;2023-07-30T05:11:06;19.10;99.90
8231;DHT22;4156;50.908;6.974;2023-07-30T05:13:32;19.10;99.90
8231;DHT22;4156;50.908;6.974;2023-07-30T05:15:57;19.20;99.90
8231;DHT22;4156;50.908;6.974;2023-07-30T05:18:23;19.10;99.90
8231;DHT22;4156;50.908;6.974;2023-07-30T05:20:49;19.20;99.90
8231;DHT22;4156;50.908;6.974;2023-07-30T05:23:15;19.20;99.90
8231;DHT22;4156;50.908;6.974;2023-07-30T05:25:40;19.40;99.90
8231;DHT22;4156;50.908;6.974;2023-07-30T05:28:06;19.20;99.90
8231;DHT22;4156;50.908;6.974;2023-07-30T05:30:31;19.10;99.90
8231;DHT22;4156;50.908;6.974;2023-07-30T05:32:57;19.20;99.90
8231;DHT22;4156;50.908;6.974;2023-07-30T05:35:22;19.20;99.90
8231;DHT22;4156;50.908;6.974;2023-07-30T05:37:48;19.10;99.90
8231;DHT22;4156;50.908;6.974;2023-07-30T05:40:14;19.20;99.90
8231;DHT22;4156;50.908;6.974;2023-07-30T05:42:39;19.20;99.90
8231;DHT22;4156;50.908;6.974;2023-07-30T05:45:05;19.20;99.90
8231;DHT22;4156;50.908;6.974;2023-07-30T05:47:31;19.20;99.90
8231;DHT22;4156;50.908;6.974;2023-07-30T05:49:58;19.20;99.90
8231;DHT22;4156;50.908;6.974;2023-07-30T05:52:23;19.20;99.90
8231;DHT22;4156;50.908;6.974;2023-07-30T05:54:49;19.10;99.90
8231;DHT22;4156;50.908;6.974;2023-07-30T05:57:14;19.20;99.90
8231;DHT22;4156;50.908;6.974;2023-07-30T05:59:40;19.70;99.90
8231;DHT22;4156;50.908;6.974;2023-07-30T06:02:05;19.10;99.90
8231;DHT22;4156;50.908;6.974;2023-07-30T06:04:31;19.10;99.90
8231;DHT22;4156;50.908;6.974;2023-07-30T06:07:02;19.10;99.90
8231;DHT22;4156;50.908;6.974;2023-07-30T06:09:28;19.10;99.90
8231;DHT22;4156;50.908;6.974;2023-07-30T06:11:56;19.20;99.90
8231;DHT22;4156;50.908;6.974;2023-07-30T06:14:22;19.20;99.90
8231;DHT22;4156;50.908;6.974;2023-07-30T06:16:47;19.20;99.90
8231;DHT22;4156;50.908;6.974;2023-07-30T06:19:13;19.10;99.90
8231;DHT22;4156;50.908;6.974;2023-07-30T06:21:38;19.10;99.90
8231;DHT22;4156;50.908;6.974;2023-07-30T06:24:04;19.10;99.90
8231;DHT22;4156;50.908;6.974;2023-07-30T06:26:29;19.10;99.90
8231;DHT22;4156;50.908;6.974;2023-07-30T06:28:55;19.10;99.90
8231;DHT22;4156;50.908;6.974;2023-07-30T06:31:21;19.10;99.90
8231;DHT22;4156;50.908;6.974;2023-07-30T06:33:46;19.10;99.90
8231;DHT22;4156;50.908;6.974;2023-07-30T06:36:12;19.10;99.90
8231;DHT22;4156;50.908;6.974;2023-07-30T06:38:37;19.10;99.90
8231;DHT22;4156;50.908;6.974;2023-07-30T06:41:03;19.10;99.90
8231;DHT22;4156;50.908;6.974;2023-07-30T06:43:28;19.10;99.90
8231;DHT22;4156;50.908;6.974;2023-07-30T06:45:54;19.40;99.90
8231;DHT22;4156;50.908;6.974;2023-07-30T06:48:20;19.20;99.90
8231;DHT22;4156;50.908;6.974;2023-07-30T06:50:45;19.20;99.90
8231;DHT22;4156;50.908;6.974;2023-07-30T06:53:11;19.10;99.90
8231;DHT22;4156;50.908;6.974;2023-07-30T06:55:36;19.10;99.90
8231;DHT22;4156;50.908;6.974;2023-07-30T06:58:02;19.40;99.90
8231;DHT22;4156;50.908;6.974;2023-07-30T07:00:27;19.10;99.90
8231;DHT22;4156;50.908;6.974;2023-07-30T07:02:53;19.10;99.90
8231;DHT22;4156;50.908;6.974;2023-07-30T07:05:19;19.10;99.90
8231;DHT22;4156;50.908;6.974;2023-07-30T07:07:45;19.10;99.90
8231;DHT22;4156;50.908;6.974;2023-07-30T07:10:10;19.20;99.90
8231;DHT22;4156;50.908;6.974;2023-07-30T07:12:37;19.20;99.90
8231;DHT22;4156;50.908;6.974;2023-07-30T07:15:04;19.10;99.90
8231;DHT22;4156;50.908;6.974;2023-07-30T07:17:29;19.00;99.90
8231;DHT22;4156;50.908;6.974;2023-07-30T07:19:55;19.30;99.90
8231;DHT22;4156;50.908;6.974;2023-07-30T07:22:20;19.10;99.90
8231;DHT22;4156;50.908;6.974;2023-07-30T07:24:46;19.90;99.90
8231;DHT22;4156;50.908;6.974;2023-07-30T07:27:11;19.20;99.90
8231;DHT22;4156;50.908;6.974;2023-07-30T07:29:37;19.10;99.90
8231;DHT22;4156;50.908;6.974;2023-07-30T07:32:03;19.10;99.90
8231;DHT22;4156;50.908;6.974;2023-07-30T07:34:28;19.10;99.90
8231;DHT22;4156;50.908;6.974;2023-07-30T07:36:54;19.10;99.90
8231;DHT22;4156;50.908;6.974;2023-07-30T07:39:20;19.10;99.90
8231;DHT22;4156;50.908;6.974;2023-07-30T07:41:45;19.20;99.90
8231;DHT22;4156;50.908;6.974;2023-07-30T07:44:11;19.20;99.90
8231;DHT22;4156;50.908;6.974;2023-07-30T07:46:36;19.20;99.90
8231;DHT22;4156;50.908;6.974;2023-07-30T07:49:02;19.10;99.90
8231;DHT22;4156;50.908;6.974;2023-07-30T07:51:27;19.20;99.90
8231;DHT22;4156;50.908;6.974;2023-07-30T07:53:53;19.30;99.90
8231;DHT22;4156;50.908;6.974;2023-07-30T07:56:19;19.30;99.90
8231;DHT22;4156;50.908;6.974;2023-07-30T07:58:44;19.30;99.90
8231;DHT22;4156;50.908;6.974;2023-07-30T08:01:10;19.40;99.90
8231;DHT22;4156;50.908;6.974;2023-07-30T08:03:35;19.30;99.90
8231;DHT22;4156;50.908;6.974;2023-07-30T08:06:01;19.30;99.90
8231;DHT22;4156;50.908;6.974;2023-07-30T08:08:27;19.30;99.90
8231;DHT22;4156;50.908;6.974;2023-07-30T08:10:52;19.30;99.90
8231;DHT22;4156;50.908;6.974;2023-07-30T08:13:18;19.30;99.90
8231;DHT22;4156;50.908;6.974;2023-07-30T08:15:44;19.40;99.90
8231;DHT22;4156;50.908;6.974;2023-07-30T08:18:09;19.40;99.90
8231;DHT22;4156;50.908;6.974;2023-07-30T08:20:36;19.80;99.90
8231;DHT22;4156;50.908;6.974;2023-07-30T08:23:01;19.50;99.90
8231;DHT22;4156;50.908;6.974;2023-07-30T08:25:27;19.40;99.90
8231;DHT22;4156;50.908;6.974;2023-07-30T08:27:52;19.50;99.90
8231;DHT22;4156;50.908;6.974;2023-07-30T08:30:18;19.60;99.90
8231;DHT22;4156;50.908;6.974;2023-07-30T08:32:43;19.50;99.90
8231;DHT22;4156;50.908;6.974;2023-07-30T08:35:10;19.50;99.90
8231;DHT22;4156;50.908;6.974;2023-07-30T08:37:35;19.90;99.90
8231;DHT22;4156;50.908;6.974;2023-07-30T08:40:01;19.50;99.90
8231;DHT22;4156;50.908;6.974;2023-07-30T08:42:27;19.50;99.90
8231;DHT22;4156;50.908;6.974;2023-07-30T08:44:52;19.50;99.90
8231;DHT22;4156;50.908;6.974;2023-07-30T08:47:18;19.60;99.90
8231;DHT22;4156;50.908;6.974;2023-07-30T08:49:43;19.40;99.90
8231;DHT22;4156;50.908;6.974;2023-07-30T08:52:10;19.40;99.90
8231;DHT22;4156;50.908;6.974;2023-07-30T08:54:37;19.50;99.90
8231;DHT22;4156;50.908;6.974;2023-07-30T08:57:03;19.50;99.90
8231;DHT22;4156;50.908;6.974;2023-07-30T08:59:50;19.60;99.90
8231;DHT22;4156;50.908;6.974;2023-07-30T09:02:24;19.60;99.90
8231;DHT22;4156;50.908;6.974;2023-07-30T09:04:53;19.60;99.90
8231;DHT22;4156;50.908;6.974;2023-07-30T09:07:24;19.70;99.90
8231;DHT22;4156;50.908;6.974;2023-07-30T09:09:50;19.60;99.90
8231;DHT22;4156;50.908;6.974;2023-07-30T09:12:16;19.70;99.90
8231;DHT22;4156;50.908;6.974;2023-07-30T09:14:41;19.70;99.90
8231;DHT22;4156;50.908;6.974;2023-07-30T09:17:16;19.70;99.90
8231;DHT22;4156;50.908;6.974;2023-07-30T09:19:41;19.80;99.90
8231;DHT22;4156;50.908;6.974;2023-07-30T09:22:07;19.70;99.90
8231;DHT22;4156;50.908;6.974;2023-07-30T09:24:33;19.70;99.90
8231;DHT22;4156;50.908;6.974;2023-07-30T09:27:02;19.80;99.90
8231;DHT22;4156;50.908;6.974;2023-07-30T09:29:28;19.80;99.90
8231;DHT22;4156;50.908;6.974;2023-07-30T09:31:54;19.80;99.90
8231;DHT22;4156;50.908;6.974;2023-07-30T09:34:21;19.90;99.90
8231;DHT22;4156;50.908;6.974;2023-07-30T09:36:49;19.90;99.90
8231;DHT22;4156;50.908;6.974;2023-07-30T09:39:25;19.90;99.90
8231;DHT22;4156;50.908;6.974;2023-07-30T09:41:53;19.90;99.90
8231;DHT22;4156;50.908;6.974;2023-07-30T09:44:24;19.90;99.90
8231;DHT22;4156;50.908;6.974;2023-07-30T09:46:50;19.90;99.90
8231;DHT22;4156;50.908;6.974;2023-07-30T09:49:16;20.00;99.90
8231;DHT22;4156;50.908;6.974;2023-07-30T09:51:42;20.00;99.90
8231;DHT22;4156;50.908;6.974;2023-07-30T09:54:12;20.00;99.90
8231;DHT22;4156;50.908;6.974;2023-07-30T09:56:39;20.00;99.90
8231;DHT22;4156;50.908;6.974;2023-07-30T09:59:05;20.00;99.90
8231;DHT22;4156;50.908;6.974;2023-07-30T10:01:35;20.00;99.90
8231;DHT22;4156;50.908;6.974;2023-07-30T10:04:07;20.10;99.90
8231;DHT22;4156;50.908;6.974;2023-07-30T10:06:33;20.10;99.90
8231;DHT22;4156;50.908;6.974;2023-07-30T10:09:01;20.10;99.90
8231;DHT22;4156;50.908;6.974;2023-07-30T10:11:28;20.10;99.90
8231;DHT22;4156;50.908;6.974;2023-07-30T10:13:54;20.10;99.90
8231;DHT22;4156;50.908;6.974;2023-07-30T10:16:26;20.10;99.90
8231;DHT22;4156;50.908;6.974;2023-07-30T10:18:56;20.20;99.90
8231;DHT22;4156;50.908;6.974;2023-07-30T10:21:27;20.20;99.90
8231;DHT22;4156;50.908;6.974;2023-07-30T10:24:02;20.20;99.90
8231;DHT22;4156;50.908;6.974;2023-07-30T10:26:34;20.20;99.90
8231;DHT22;4156;50.908;6.974;2023-07-30T10:29:16;20.30;99.90
8231;DHT22;4156;50.908;6.974;2023-07-30T10:31:43;20.30;99.90
8231;DHT22;4156;50.908;6.974;2023-07-30T10:34:10;20.30;99.90
8231;DHT22;4156;50.908;6.974;2023-07-30T10:36:45;20.30;99.90
8231;DHT22;4156;50.908;6.974;2023-07-30T10:39:16;20.30;99.90
8231;DHT22;4156;50.908;6.974;2023-07-30T10:41:56;20.30;99.90
8231;DHT22;4156;50.908;6.974;2023-07-30T10:46:56;20.30;99.90
8231;DHT22;4156;50.908;6.974;2023-07-30T10:49:22;20.40;99.90
8231;DHT22;4156;50.908;6.974;2023-07-30T10:51:48;20.30;99.90
8231;DHT22;4156;50.908;6.974;2023-07-30T10:54:14;20.40;99.90
8231;DHT22;4156;50.908;6.974;2023-07-30T10:56:41;20.40;99.90
8231;DHT22;4156;50.908;6.974;2023-07-30T10:59:09;20.40;99.90
8231;DHT22;4156;50.908;6.974;2023-07-30T11:01:39;20.40;99.90
8231;DHT22;4156;50.908;6.974;2023-07-30T11:04:17;20.40;99.90
8231;DHT22;4156;50.908;6.974;2023-07-30T11:06:50;20.40;99.90
8231;DHT22;4156;50.908;6.974;2023-07-30T11:09:20;20.50;99.90
8231;DHT22;4156;50.908;6.974;2023-07-30T11:11:46;20.40;99.90
8231;DHT22;4156;50.908;6.974;2023-07-30T11:14:16;20.50;99.90
8231;DHT22;4156;50.908;6.974;2023-07-30T11:16:51;20.50;99.90
8231;DHT22;4156;50.908;6.974;2023-07-30T11:19:17;20.50;99.90
8231;DHT22;4156;50.908;6.974;2023-07-30T11:21:50;20.50;99.90
8231;DHT22;4156;50.908;6.974;2023-07-30T11:24:16;20.50;99.90
8231;DHT22;4156;50.908;6.974;2023-07-30T11:26:42;20.40;99.90
8231;DHT22;4156;50.908;6.974;2023-07-30T11:29:18;20.50;99.90
8231;DHT22;4156;50.908;6.974;2023-07-30T11:31:45;20.50;99.90
8231;DHT22;4156;50.908;6.974;2023-07-30T11:34:12;20.50;99.90
8231;DHT22;4156;50.908;6.974;2023-07-30T11:36:38;20.50;99.90
8231;DHT22;4156;50.908;6.974;2023-07-30T11:39:04;20.50;99.90
8231;DHT22;4156;50.908;6.974;2023-07-30T11:41:30;20.50;99.90
8231;DHT22;4156;50.908;6.974;2023-07-30T11:43:56;20.50;99.90
8231;DHT22;4156;50.908;6.974;2023-07-30T11:46:21;20.60;99.90
8231;DHT22;4156;50.908;6.974;2023-07-30T11:48:53;20.50;99.90
8231;DHT22;4156;50.908;6.974;2023-07-30T11:51:20;20.50;99.90
8231;DHT22;4156;50.908;6.974;2023-07-30T11:53:53;20.60;99.90
8231;DHT22;4156;50.908;6.974;2023-07-30T11:58:47;20.50;99.90
8231;DHT22;4156;50.908;6.974;2023-07-30T12:01:17;20.60;99.90
8231;DHT22;4156;50.908;6.974;2023-07-30T12:03:43;20.60;99.90
8231;DHT22;4156;50.908;6.974;2023-07-30T12:06:12;20.60;99.90
8231;DHT22;4156;50.908;6.974;2023-07-30T12:08:38;20.60;99.90
8231;DHT22;4156;50.908;6.974;2023-07-30T12:11:05;20.60;99.90
8231;DHT22;4156;50.908;6.974;2023-07-30T12:13:31;20.60;99.90
8231;DHT22;4156;50.908;6.974;2023-07-30T12:15:58;20.60;99.90
8231;DHT22;4156;50.908;6.974;2023-07-30T12:18:25;20.60;99.90
8231;DHT22;4156;50.908;6.974;2023-07-30T12:20:51;20.60;99.90
8231;DHT22;4156;50.908;6.974;2023-07-30T12:23:18;20.60;99.90
8231;DHT22;4156;50.908;6.974;2023-07-30T12:25:44;20.70;99.90
8231;DHT22;4156;50.908;6.974;2023-07-30T12:28:10;20.70;99.90
8231;DHT22;4156;50.908;6.974;2023-07-30T12:30:35;20.70;99.90
8231;DHT22;4156;50.908;6.974;2023-07-30T12:33:02;20.70;99.90
8231;DHT22;4156;50.908;6.974;2023-07-30T12:35:28;20.70;99.90
8231;DHT22;4156;50.908;6.974;2023-07-30T12:37:54;20.70;99.90
8231;DHT22;4156;50.908;6.974;2023-07-30T12:40:20;20.80;99.90
8231;DHT22;4156;50.908;6.974;2023-07-30T12:42:45;20.70;99.90
8231;DHT22;4156;50.908;6.974;2023-07-30T12:45:11;20.70;99.90
8231;DHT22;4156;50.908;6.974;2023-07-30T12:47:36;20.70;99.90
8231;DHT22;4156;50.908;6.974;2023-07-30T12:50:02;20.80;99.90
8231;DHT22;4156;50.908;6.974;2023-07-30T12:52:28;20.80;99.90
8231;DHT22;4156;50.908;6.974;2023-07-30T12:54:54;20.80;99.90
8231;DHT22;4156;50.908;6.974;2023-07-30T12:57:19;20.80;99.90
8231;DHT22;4156;50.908;6.974;2023-07-30T12:59:45;20.80;99.90
8231;DHT22;4156;50.908;6.974;2023-07-30T13:02:10;20.90;99.90
8231;DHT22;4156;50.908;6.974;2023-07-30T13:04:36;20.90;99.90
8231;DHT22;4156;50.908;6.974;2023-07-30T13:07:01;20.90;99.90
8231;DHT22;4156;50.908;6.974;2023-07-30T13:09:28;20.90;99.90
8231;DHT22;4156;50.908;6.974;2023-07-30T13:11:54;20.90;99.90
8231;DHT22;4156;50.908;6.974;2023-07-30T13:14:19;20.90;99.90
8231;DHT22;4156;50.908;6.974;2023-07-30T13:16:45;20.90;99.90
8231;DHT22;4156;50.908;6.974;2023-07-30T13:19:10;20.90;99.90
8231;DHT22;4156;50.908;6.974;2023-07-30T13:21:37;20.90;99.90
8231;DHT22;4156;50.908;6.974;2023-07-30T13:24:03;20.90;99.90
8231;DHT22;4156;50.908;6.974;2023-07-30T13:26:28;20.90;99.90
8231;DHT22;4156;50.908;6.974;2023-07-30T13:28:54;20.90;99.90
8231;DHT22;4156;50.908;6.974;2023-07-30T13:31:19;20.90;99.90
8231;DHT22;4156;50.908;6.974;2023-07-30T13:33:45;21.00;99.90
8231;DHT22;4156;50.908;6.974;2023-07-30T13:36:12;21.00;99.90
8231;DHT22;4156;50.908;6.974;2023-07-30T13:38:38;21.00;99.90
8231;DHT22;4156;50.908;6.974;2023-07-30T13:41:05;21.00;99.90
8231;DHT22;4156;50.908;6.974;2023-07-30T13:43:31;21.00;99.90
8231;DHT22;4156;50.908;6.974;2023-07-30T13:45:56;21.00;99.90
8231;DHT22;4156;50.908;6.974;2023-07-30T13:48:23;21.10;99.90
8231;DHT22;4156;50.908;6.974;2023-07-30T13:50:49;21.00;99.90
8231;DHT22;4156;50.908;6.974;2023-07-30T13:53:15;21.00;99.90
8231;DHT22;4156;50.908;6.974;2023-07-30T13:55:40;21.10;99.90
8231;DHT22;4156;50.908;6.974;2023-07-30T13:58:06;21.10;99.90
8231;DHT22;4156;50.908;6.974;2023-07-30T14:00:31;21.10;99.90
8231;DHT22;4156;50.908;6.974;2023-07-30T14:02:57;21.10;99.90
8231;DHT22;4156;50.908;6.974;2023-07-30T14:05:22;21.10;99.90
8231;DHT22;4156;50.908;6.974;2023-07-30T14:07:48;21.10;99.90
8231;DHT22;4156;50.908;6.974;2023-07-30T14:10:16;21.10;99.90
8231;DHT22;4156;50.908;6.974;2023-07-30T14:12:42;21.10;99.90
8231;DHT22;4156;50.908;6.974;2023-07-30T14:15:08;21.00;99.90
8231;DHT22;4156;50.908;6.974;2023-07-30T14:17:34;21.10;99.90
8231;DHT22;4156;50.908;6.974;2023-07-30T14:19:59;21.10;99.90
8231;DHT22;4156;50.908;6.974;2023-07-30T14:22:25;21.10;99.90
8231;DHT22;4156;50.908;6.974;2023-07-30T14:24:50;21.10;99.90
8231;DHT22;4156;50.908;6.974;2023-07-30T14:27:17;21.10;99.90
8231;DHT22;4156;50.908;6.974;2023-07-30T14:29:42;21.10;99.90
8231;DHT22;4156;50.908;6.974;2023-07-30T14:32:08;21.10;99.90
8231;DHT22;4156;50.908;6.974;2023-07-30T14:34:34;21.10;99.90
8231;DHT22;4156;50.908;6.974;2023-07-30T14:36:59;21.10;99.90
8231;DHT22;4156;50.908;6.974;2023-07-30T14:39:25;21.30;99.90
8231;DHT22;4156;50.908;6.974;2023-07-30T14:41:50;21.20;99.90
8231;DHT22;4156;50.908;6.974;2023-07-30T14:44:16;21.20;99.90
8231;DHT22;4156;50.908;6.974;2023-07-30T14:46:42;21.20;99.90
8231;DHT22;4156;50.908;6.974;2023-07-30T14:49:08;21.20;99.90
8231;DHT22;4156;50.908;6.974;2023-07-30T14:51:33;21.20;99.90
8231;DHT22;4156;50.908;6.974;2023-07-30T14:53:59;21.20;99.90
8231;DHT22;4156;50.908;6.974;2023-07-30T14:56:24;21.20;99.90
8231;DHT22;4156;50.908;6.974;2023-07-30T14:58:50;21.20;99.90
8231;DHT22;4156;50.908;6.974;2023-07-30T15:01:15;21.30;99.90
8231;DHT22;4156;50.908;6.974;2023-07-30T15:03:41;21.30;99.90
8231;DHT22;4156;50.908;6.974;2023-07-30T15:06:06;21.30;99.90
8231;DHT22;4156;50.908;6.974;2023-07-30T15:08:33;21.20;99.90
8231;DHT22;4156;50.908;6.974;2023-07-30T15:10:58;21.20;99.90
8231;DHT22;4156;50.908;6.974;2023-07-30T15:13:24;21.20;99.90
8231;DHT22;4156;50.908;6.974;2023-07-30T15:15:50;21.30;99.90
8231;DHT22;4156;50.908;6.974;2023-07-30T15:18:16;21.30;99.90
8231;DHT22;4156;50.908;6.974;2023-07-30T15:20:41;21.30;99.90
8231;DHT22;4156;50.908;6.974;2023-07-30T15:23:07;21.20;99.90
8231;DHT22;4156;50.908;6.974;2023-07-30T15:25:34;21.40;99.90
8231;DHT22;4156;50.908;6.974;2023-07-30T15:27:59;21.30;99.90
8231;DHT22;4156;50.908;6.974;2023-07-30T15:30:27;21.30;99.90
8231;DHT22;4156;50.908;6.974;2023-07-30T15:32:52;21.30;99.90
8231;DHT22;4156;50.908;6.974;2023-07-30T15:35:18;21.30;99.90
8231;DHT22;4156;50.908;6.974;2023-07-30T15:37:43;21.30;99.90
8231;DHT22;4156;50.908;6.974;2023-07-30T15:40:11;21.30;99.90
8231;DHT22;4156;50.908;6.974;2023-07-30T15:42:37;21.30;99.90
8231;DHT22;4156;50.908;6.974;2023-07-30T15:45:03;21.30;99.90
8231;DHT22;4156;50.908;6.974;2023-07-30T15:47:29;21.40;99.90
8231;DHT22;4156;50.908;6.974;2023-07-30T15:49:55;21.30;99.90
8231;DHT22;4156;50.908;6.974;2023-07-30T15:52:21;21.40;99.90
8231;DHT22;4156;50.908;6.974;2023-07-30T15:54:47;21.40;99.90
8231;DHT22;4156;50.908;6.974;2023-07-30T15:57:12;21.40;99.90
8231;DHT22;4156;50.908;6.974;2023-07-30T15:59:47;21.40;99.90
8231;DHT22;4156;50.908;6.974;2023-07-30T16:02:13;21.40;99.90